Aviation Digital Data Service (ADDS)

Output produced by METARs form (2251 UTC 19 April 2021)
found at http://aviationweather.gov/metar/data/
 
METAR text: EGLF 192220Z AUTO 20003KT 9999 NCD 06/00 Q1019
Conditions at: EGLF (FARNBOROUGH , GB) observed 2220 UTC 19 April 2021
Temperature: 6.0°C (43°F)
Dewpoint: 0.0°C (32°F) [RH = 65%]
Pressure (altimeter): 30.09 inches Hg (1019.0 mb)
Winds: from the SSW (200 degrees) at 3 MPH (3 knots; 1.5 m/s)
Visibility: 6 or more miles (10+ km)
Ceiling: at least 12,000 feet AGL
Clouds: sky clear below 12,000 feet AGL
Weather: no significant weather observed at this time

Forecast for: EGLF (FARNBOROUGH , GB)
Text: TAF EGLF 191957Z 1921/1923 VRB03KT CAVOK
Forecast period: 2100 to 2300 UTC 19 April 2021
Forecast type: FROM: standard forecast or significant change
Winds: variable direction winds at 3 MPH (3 knots; 1.5 m/s)
Visibility: 6 or more miles (10+ km)
Ceiling: unknown
Clouds: missing
Weather: NSW  (no significant weather)